createdAt,value
2022-09-21T00:00:21.102Z,9.79
2022-09-21T00:02:48.000Z,9.59
2022-09-21T00:05:14.898Z,9.55
2022-09-21T00:07:41.728Z,9.45
2022-09-21T00:10:10.518Z,9.25
2022-09-21T00:12:40.045Z,9.27
2022-09-21T00:15:08.386Z,9.24
2022-09-21T00:17:36.736Z,9.15
2022-09-21T00:20:05.787Z,9.03
2022-09-21T00:22:32.933Z,9.08
2022-09-21T00:25:01.472Z,9.09
2022-09-21T00:27:30.444Z,9.00
2022-09-21T00:29:57.747Z,9.05
2022-09-21T00:32:25.270Z,9.06
2022-09-21T00:34:52.364Z,8.97
2022-09-21T00:37:19.590Z,8.95
2022-09-21T00:39:46.688Z,8.91
2022-09-21T00:42:18.395Z,8.87
2022-09-21T00:44:46.555Z,8.90
2022-09-21T00:47:16.328Z,8.82
2022-09-21T00:49:49.558Z,8.82
2022-09-21T00:52:17.754Z,8.64
2022-09-21T00:54:49.497Z,8.58
2022-09-21T00:57:17.062Z,8.66
2022-09-21T00:59:46.835Z,8.67
2022-09-21T01:02:15.486Z,8.65
2022-09-21T01:04:42.525Z,8.58
2022-09-21T01:07:14.170Z,8.57
2022-09-21T01:09:43.490Z,8.56
2022-09-21T01:12:26.746Z,8.71
2022-09-21T01:15:05.659Z,8.66
2022-09-21T01:17:45.088Z,8.52
2022-09-21T01:20:50.089Z,8.51
2022-09-21T01:23:39.990Z,8.48
2022-09-21T01:26:16.187Z,8.47
2022-09-21T01:29:13.669Z,8.48
2022-09-21T01:31:49.124Z,8.38
2022-09-21T01:34:21.800Z,8.38
2022-09-21T01:36:50.166Z,8.38
2022-09-21T01:39:20.744Z,8.28
2022-09-21T01:41:51.961Z,8.18
2022-09-21T01:44:23.326Z,8.17
2022-09-21T01:46:51.110Z,8.11
2022-09-21T01:49:21.751Z,8.04
2022-09-21T01:51:53.462Z,7.99
2022-09-21T01:54:24.952Z,7.97
2022-09-21T01:56:59.648Z,7.97
2022-09-21T01:59:35.278Z,7.94
2022-09-21T02:02:09.897Z,7.91
2022-09-21T02:04:37.925Z,7.98
2022-09-21T02:07:05.014Z,8.01
2022-09-21T02:09:32.810Z,7.98
2022-09-21T02:12:02.212Z,7.94
2022-09-21T02:14:33.423Z,7.87
2022-09-21T02:17:10.726Z,7.77
2022-09-21T02:19:45.435Z,7.71
2022-09-21T02:22:18.790Z,7.71
2022-09-21T02:24:48.295Z,7.75
2022-09-21T02:27:25.836Z,7.82
2022-09-21T02:30:02.100Z,7.81
2022-09-21T02:32:36.078Z,7.86
2022-09-21T02:35:09.304Z,7.84
2022-09-21T02:37:44.213Z,7.79
2022-09-21T02:40:22.440Z,7.72
2022-09-21T02:42:53.776Z,7.66
2022-09-21T02:45:25.630Z,7.56
2022-09-21T02:47:54.454Z,7.50
2022-09-21T02:50:25.844Z,7.44
2022-09-21T02:52:54.664Z,7.42
2022-09-21T02:55:22.738Z,7.39
2022-09-21T02:57:50.233Z,7.38
2022-09-21T03:00:17.649Z,7.38
2022-09-21T03:02:46.209Z,7.32
2022-09-21T03:05:14.874Z,7.31
2022-09-21T03:07:41.939Z,7.24
2022-09-21T03:10:09.686Z,7.41
2022-09-21T03:12:37.110Z,7.56
2022-09-21T03:15:04.784Z,7.55
2022-09-21T03:17:31.731Z,7.46
2022-09-21T03:19:59.962Z,7.38
2022-09-21T03:22:27.585Z,7.14
2022-09-21T03:24:57.546Z,7.22
2022-09-21T03:27:24.602Z,7.25
2022-09-21T03:29:51.446Z,7.18
2022-09-21T03:32:18.385Z,7.16
2022-09-21T03:34:45.193Z,7.12
2022-09-21T03:37:13.448Z,7.24
2022-09-21T03:39:40.279Z,7.19
2022-09-21T03:42:09.195Z,7.15
2022-09-21T03:44:37.526Z,6.90
2022-09-21T03:47:06.695Z,6.92
2022-09-21T03:49:34.902Z,7.03
2022-09-21T03:52:02.344Z,7.05
2022-09-21T03:54:30.735Z,7.09
2022-09-21T03:56:57.621Z,7.09
2022-09-21T03:59:24.538Z,6.98
2022-09-21T04:01:51.446Z,7.00
2022-09-21T04:04:18.328Z,7.06
2022-09-21T04:06:46.259Z,7.02
2022-09-21T04:09:13.300Z,6.96
2022-09-21T04:11:41.835Z,6.93
2022-09-21T04:14:08.636Z,7.00
2022-09-21T04:16:35.480Z,7.05
2022-09-21T04:19:02.634Z,7.08
2022-09-21T04:21:30.104Z,7.07
2022-09-21T04:23:56.953Z,7.01
2022-09-21T04:26:25.823Z,6.96
2022-09-21T04:28:55.341Z,6.93
2022-09-21T04:31:23.683Z,6.94
2022-09-21T04:33:52.034Z,6.95
2022-09-21T04:36:20.018Z,6.90
2022-09-21T04:38:47.236Z,6.85
2022-09-21T04:41:15.031Z,6.86
2022-09-21T04:43:42.477Z,6.87
2022-09-21T04:46:12.886Z,6.81
2022-09-21T04:48:40.386Z,6.76
2022-09-21T04:51:08.103Z,6.74
2022-09-21T04:53:35.879Z,6.75
2022-09-21T04:56:04.893Z,6.83
2022-09-21T04:58:32.269Z,6.82
2022-09-21T05:00:59.413Z,6.80
2022-09-21T05:03:28.001Z,6.80
2022-09-21T05:05:56.651Z,6.80
2022-09-21T05:08:44.202Z,6.82
2022-09-21T05:11:13.290Z,6.72
2022-09-21T05:13:40.350Z,6.68
2022-09-21T05:16:07.283Z,6.59
2022-09-21T05:18:35.956Z,6.58
2022-09-21T05:21:04.238Z,6.53
2022-09-21T05:23:31.942Z,6.51
2022-09-21T05:25:59.707Z,6.48
2022-09-21T05:28:27.464Z,6.50
2022-09-21T05:31:16.595Z,6.51
2022-09-21T05:33:52.124Z,6.58
2022-09-21T05:36:41.315Z,6.52
2022-09-21T05:39:08.746Z,6.55
2022-09-21T05:41:36.450Z,6.63
2022-09-21T05:44:03.854Z,6.70
2022-09-21T05:46:39.198Z,6.82
2022-09-21T05:49:17.221Z,6.90
2022-09-21T05:51:54.640Z,6.98
2022-09-21T05:54:30.567Z,7.08
2022-09-21T05:57:05.511Z,7.25
2022-09-21T05:59:57.735Z,7.62
2022-09-21T06:05:33.914Z,8.85
2022-09-21T06:11:03.642Z,9.83
2022-09-21T06:22:32.497Z,11.58
2022-09-21T06:24:59.353Z,11.89
2022-09-21T06:30:28.700Z,12.51
2022-09-21T06:32:59.273Z,12.87
2022-09-21T06:35:26.542Z,13.26
2022-09-21T06:37:57.940Z,13.62
2022-09-21T06:40:24.881Z,14.00
2022-09-21T06:42:55.926Z,14.45
2022-09-21T06:45:22.788Z,15.03
2022-09-21T06:47:49.783Z,15.79
2022-09-21T06:50:16.715Z,16.34
2022-09-21T06:52:43.603Z,16.74
2022-09-21T06:55:12.325Z,16.85
2022-09-21T06:57:40.006Z,16.97
2022-09-21T07:00:10.263Z,16.96
2022-09-21T07:02:37.181Z,17.13
2022-09-21T07:05:04.731Z,17.07
2022-09-21T07:07:31.648Z,16.78
2022-09-21T07:10:07.564Z,16.74
2022-09-21T07:12:37.470Z,16.56
2022-09-21T07:15:06.069Z,16.26
2022-09-21T07:17:33.598Z,16.33
2022-09-21T07:20:01.964Z,16.56
2022-09-21T07:22:29.076Z,16.46
2022-09-21T07:24:56.559Z,16.34
2022-09-21T07:27:23.755Z,16.13
2022-09-21T07:29:52.034Z,16.16
2022-09-21T07:32:19.318Z,16.14
2022-09-21T07:34:46.667Z,16.06
2022-09-21T07:37:14.486Z,15.78
2022-09-21T07:39:41.331Z,15.82
2022-09-21T07:42:08.241Z,15.65
2022-09-21T07:44:35.140Z,15.60
2022-09-21T07:47:03.506Z,15.99
2022-09-21T07:49:30.517Z,16.06
2022-09-21T07:52:01.484Z,15.87
2022-09-21T07:54:31.022Z,15.75
2022-09-21T07:57:18.119Z,15.58
2022-09-21T07:59:45.917Z,15.84
2022-09-21T08:02:14.185Z,15.98
2022-09-21T08:04:41.085Z,16.09
2022-09-21T08:07:08.320Z,16.18
2022-09-21T08:09:35.188Z,16.30
2022-09-21T08:12:02.448Z,16.46
2022-09-21T08:14:29.503Z,16.63
2022-09-21T08:16:56.314Z,16.79
2022-09-21T08:19:27.691Z,17.03
2022-09-21T08:21:57.882Z,17.23
2022-09-21T08:24:26.853Z,17.14
2022-09-21T08:26:53.849Z,17.37
2022-09-21T08:29:20.979Z,17.55
2022-09-21T08:31:48.022Z,17.08
2022-09-21T08:34:16.218Z,17.10
2022-09-21T08:36:44.417Z,17.15
2022-09-21T08:39:11.290Z,17.25
2022-09-21T08:41:55.687Z,17.67
2022-09-21T08:44:26.723Z,17.76
2022-09-21T08:47:03.841Z,17.97
2022-09-21T08:49:35.241Z,18.15
2022-09-21T08:52:07.783Z,18.20
2022-09-21T08:54:41.931Z,18.12
2022-09-21T08:57:12.000Z,18.20
2022-09-21T08:59:42.912Z,18.07
2022-09-21T09:02:30.579Z,17.58
2022-09-21T09:05:03.394Z,17.70
2022-09-21T09:07:52.477Z,17.73
2022-09-21T09:10:36.529Z,17.49
2022-09-21T09:13:17.979Z,17.26
2022-09-21T09:15:52.845Z,17.35
2022-09-21T09:18:29.291Z,17.49
2022-09-21T09:21:00.836Z,17.64
2022-09-21T09:23:32.656Z,17.52
2022-09-21T09:26:01.644Z,17.49
2022-09-21T09:28:33.948Z,17.20
2022-09-21T09:31:05.225Z,17.53
2022-09-21T09:33:46.164Z,17.40
2022-09-21T09:36:14.121Z,17.28
2022-09-21T09:38:47.452Z,17.25
2022-09-21T09:41:39.093Z,17.28
2022-09-21T09:44:23.108Z,17.81
2022-09-21T09:47:00.176Z,18.06
2022-09-21T09:49:36.617Z,18.31
2022-09-21T09:52:05.395Z,18.48
2022-09-21T09:54:35.613Z,18.32
2022-09-21T09:57:04.233Z,18.17
2022-09-21T09:59:37.119Z,18.44
2022-09-21T10:02:06.492Z,18.56
2022-09-21T10:04:34.875Z,18.37
2022-09-21T10:07:02.014Z,18.30
2022-09-21T10:09:31.317Z,18.44
2022-09-21T10:12:01.850Z,18.48
2022-09-21T10:14:34.274Z,18.77
2022-09-21T10:17:06.278Z,18.86
2022-09-21T10:19:33.879Z,18.96
2022-09-21T10:22:02.724Z,19.14
2022-09-21T10:24:33.567Z,19.18
2022-09-21T10:27:10.359Z,18.75
2022-09-21T10:29:42.753Z,18.69
2022-09-21T10:32:22.138Z,18.55
2022-09-21T10:35:18.083Z,18.42
2022-09-21T10:37:48.409Z,18.56
2022-09-21T10:40:27.873Z,19.04
2022-09-21T10:42:58.761Z,19.38
2022-09-21T10:45:27.207Z,19.39
2022-09-21T10:47:57.216Z,18.95
2022-09-21T10:50:29.293Z,18.97
2022-09-21T10:53:00.699Z,19.30
2022-09-21T10:55:30.632Z,19.29
2022-09-21T10:57:59.996Z,19.41
2022-09-21T11:00:35.422Z,19.71
2022-09-21T11:03:28.436Z,19.94
2022-09-21T11:05:57.816Z,20.07
2022-09-21T11:08:31.102Z,19.80
2022-09-21T11:11:09.105Z,19.61
2022-09-21T11:13:42.150Z,19.83
2022-09-21T11:16:15.338Z,20.15
2022-09-21T11:18:51.936Z,19.80
2022-09-21T11:21:27.517Z,18.85
2022-09-21T11:24:03.783Z,19.00
2022-09-21T11:29:23.359Z,19.14
2022-09-21T11:32:06.224Z,19.10
2022-09-21T11:34:53.603Z,19.39
2022-09-21T11:37:37.218Z,19.96
2022-09-21T11:40:16.779Z,19.75
2022-09-21T11:42:55.975Z,19.98
2022-09-21T11:45:40.791Z,19.87
2022-09-21T11:48:20.020Z,20.14
2022-09-21T11:50:57.626Z,20.29
2022-09-21T11:53:38.152Z,20.44
2022-09-21T11:56:31.405Z,20.57
2022-09-21T11:59:08.149Z,20.76
2022-09-21T12:01:50.446Z,21.21
2022-09-21T12:04:37.549Z,20.70
2022-09-21T12:07:17.786Z,20.73
2022-09-21T12:10:16.847Z,20.94
2022-09-21T12:12:50.373Z,20.73
2022-09-21T12:15:24.517Z,20.87
2022-09-21T12:18:00.671Z,20.86
2022-09-21T12:20:36.237Z,21.08
2022-09-21T12:23:09.049Z,21.54
2022-09-21T12:25:41.310Z,21.57
2022-09-21T12:28:17.521Z,21.51
2022-09-21T12:30:48.057Z,20.76
2022-09-21T12:33:22.388Z,20.70
2022-09-21T12:35:55.071Z,20.68
2022-09-21T12:38:27.628Z,20.61
2022-09-21T12:41:04.252Z,20.78
2022-09-21T12:43:37.126Z,20.67
2022-09-21T12:46:11.229Z,20.12
2022-09-21T12:48:40.284Z,19.68
2022-09-21T12:51:13.662Z,19.72
2022-09-21T12:53:49.878Z,19.61
2022-09-21T12:56:29.412Z,20.06
2022-09-21T12:59:17.751Z,20.32
2022-09-21T13:01:56.305Z,20.34
2022-09-21T13:04:41.944Z,20.33
2022-09-21T13:07:44.155Z,20.51
2022-09-21T13:10:18.856Z,20.44
2022-09-21T13:12:53.091Z,20.50
2022-09-21T13:15:25.342Z,20.29
2022-09-21T13:18:00.066Z,20.35
2022-09-21T13:20:34.647Z,20.29
2022-09-21T13:23:02.382Z,20.38
2022-09-21T13:25:31.175Z,20.59
2022-09-21T13:28:13.476Z,20.79
2022-09-21T13:30:42.640Z,20.44
2022-09-21T13:33:46.583Z,20.23
2022-09-21T13:36:33.967Z,20.27
2022-09-21T13:39:18.917Z,20.33
2022-09-21T13:42:02.483Z,19.82
2022-09-21T13:44:42.375Z,20.02
2022-09-21T13:47:12.012Z,20.28
2022-09-21T13:49:43.521Z,20.45
2022-09-21T13:52:30.614Z,20.79
2022-09-21T13:55:00.132Z,20.74
2022-09-21T13:57:34.987Z,20.56
2022-09-21T14:00:35.988Z,20.23
2022-09-21T14:03:06.771Z,20.15
2022-09-21T14:05:39.755Z,20.37
2022-09-21T14:08:21.235Z,20.27
2022-09-21T14:10:53.150Z,19.95
2022-09-21T14:13:32.366Z,19.98
2022-09-21T14:16:45.672Z,19.90
2022-09-21T14:19:50.097Z,19.72
2022-09-21T14:22:44.426Z,19.41
2022-09-21T14:25:30.841Z,19.71
2022-09-21T14:28:12.118Z,19.80
2022-09-21T14:30:39.939Z,19.80
2022-09-21T14:33:22.681Z,19.89
2022-09-21T14:35:51.960Z,20.22
2022-09-21T14:38:22.791Z,20.36
2022-09-21T14:40:52.830Z,20.62
2022-09-21T14:43:25.575Z,20.47
2022-09-21T14:46:17.201Z,20.35
2022-09-21T14:48:50.270Z,20.31
2022-09-21T14:51:23.859Z,20.26
2022-09-21T14:54:10.265Z,20.15
2022-09-21T14:57:04.145Z,19.86
2022-09-21T14:59:48.157Z,19.69
2022-09-21T15:02:21.201Z,19.79
2022-09-21T15:05:03.890Z,19.42
2022-09-21T15:08:00.349Z,19.65
2022-09-21T15:10:52.995Z,19.60
2022-09-21T15:13:51.836Z,19.40
2022-09-21T15:16:26.321Z,19.48
2022-09-21T15:19:05.921Z,19.39
2022-09-21T15:21:33.345Z,18.98
2022-09-21T15:24:16.696Z,19.20
2022-09-21T15:26:44.324Z,19.19
2022-09-21T15:29:24.479Z,19.31
2022-09-21T15:31:51.882Z,19.21
2022-09-21T15:34:18.947Z,19.04
2022-09-21T15:36:52.219Z,18.83
2022-09-21T15:39:24.815Z,18.69
2022-09-21T15:42:08.313Z,18.47
2022-09-21T15:44:38.389Z,18.35
2022-09-21T15:47:09.539Z,18.24
2022-09-21T15:49:41.561Z,18.30
2022-09-21T15:52:24.646Z,18.40
2022-09-21T15:54:56.507Z,18.36
2022-09-21T15:57:35.956Z,18.28
2022-09-21T16:00:17.152Z,18.19
2022-09-21T16:03:02.323Z,18.24
2022-09-21T16:05:29.633Z,18.18
2022-09-21T16:08:05.976Z,17.91
2022-09-21T16:10:39.204Z,17.61
2022-09-21T16:13:30.919Z,17.64
2022-09-21T16:16:02.756Z,17.39
2022-09-21T16:18:35.156Z,17.45
2022-09-21T16:21:15.043Z,17.63
2022-09-21T16:23:42.255Z,17.51
2022-09-21T16:26:19.183Z,17.26
2022-09-21T16:28:46.329Z,17.18
2022-09-21T16:31:30.660Z,17.27
2022-09-21T16:34:04.811Z,17.32
2022-09-21T16:36:38.068Z,17.24
2022-09-21T16:39:12.843Z,17.20
2022-09-21T16:41:47.305Z,17.01
2022-09-21T16:44:20.657Z,17.09
2022-09-21T16:46:52.817Z,17.14
2022-09-21T16:49:21.778Z,17.13
2022-09-21T16:51:49.583Z,17.09
2022-09-21T16:54:17.983Z,17.11
2022-09-21T16:56:46.456Z,17.13
2022-09-21T16:59:16.337Z,17.01
2022-09-21T17:01:43.773Z,16.95
2022-09-21T17:04:13.467Z,16.83
2022-09-21T17:06:40.621Z,16.80
2022-09-21T17:09:20.872Z,16.75
2022-09-21T17:11:49.184Z,16.69
2022-09-21T17:14:16.254Z,16.57
2022-09-21T17:16:47.792Z,16.40
2022-09-21T17:19:17.518Z,16.37
2022-09-21T17:21:45.556Z,16.21
2022-09-21T17:24:27.530Z,16.16
2022-09-21T17:27:00.310Z,16.11
2022-09-21T17:29:28.308Z,16.10
2022-09-21T17:31:57.955Z,16.04
2022-09-21T17:34:27.599Z,16.02
2022-09-21T17:36:55.415Z,15.99
2022-09-21T17:39:23.679Z,15.92
2022-09-21T17:41:53.311Z,15.72
2022-09-21T17:44:39.818Z,15.68
2022-09-21T17:47:13.808Z,15.60
2022-09-21T17:49:42.687Z,15.59
2022-09-21T17:52:34.295Z,15.54
2022-09-21T17:55:05.833Z,15.48
2022-09-21T17:57:46.000Z,15.45
2022-09-21T18:00:18.494Z,15.37
2022-09-21T18:02:46.166Z,15.30
2022-09-21T18:05:24.006Z,15.22
2022-09-21T18:07:51.356Z,15.17
2022-09-21T18:10:19.125Z,15.13
2022-09-21T18:13:14.212Z,15.12
2022-09-21T18:15:54.338Z,15.07
2022-09-21T18:18:35.197Z,15.02
2022-09-21T18:21:09.035Z,14.91
2022-09-21T18:23:45.043Z,14.84
2022-09-21T18:26:16.537Z,14.78
2022-09-21T18:28:45.796Z,14.77
2022-09-21T18:31:32.691Z,14.71
2022-09-21T18:34:13.904Z,14.66
2022-09-21T18:36:48.599Z,14.64
2022-09-21T18:39:24.758Z,14.60
2022-09-21T18:42:09.194Z,14.53
2022-09-21T18:44:44.673Z,14.53
2022-09-21T18:47:19.473Z,14.48
2022-09-21T18:49:54.808Z,14.46
2022-09-21T18:52:39.606Z,14.41
2022-09-21T18:55:23.705Z,14.35
2022-09-21T18:57:51.407Z,14.28
2022-09-21T19:00:21.581Z,14.29
2022-09-21T19:03:15.342Z,14.27
2022-09-21T19:05:39.704Z,14.13
2022-09-21T19:08:16.000Z,14.07
2022-09-21T19:10:50.410Z,14.04
2022-09-21T19:13:32.573Z,13.99
2022-09-21T19:16:11.617Z,13.97
2022-09-21T19:18:46.413Z,13.91
2022-09-21T19:21:27.253Z,13.79
2022-09-21T19:24:06.291Z,13.78
2022-09-21T19:26:40.371Z,13.64
2022-09-21T19:29:28.112Z,13.68
2022-09-21T19:31:55.186Z,13.72
2022-09-21T19:34:22.451Z,13.61
2022-09-21T19:36:49.770Z,13.54
2022-09-21T19:39:19.386Z,13.48
2022-09-21T19:42:00.415Z,13.45
2022-09-21T19:44:42.033Z,13.23
2022-09-21T19:47:17.489Z,13.09
2022-09-21T19:49:48.807Z,12.93
2022-09-21T19:52:17.935Z,12.69
2022-09-21T19:55:09.989Z,12.59
2022-09-21T19:57:56.210Z,12.47
2022-09-21T20:00:24.118Z,12.31
2022-09-21T20:03:01.444Z,12.25
2022-09-21T20:05:37.250Z,12.26
2022-09-21T20:08:11.131Z,12.29
2022-09-21T20:11:01.936Z,12.31
2022-09-21T20:13:49.498Z,12.33
2022-09-21T20:16:31.235Z,12.30
2022-09-21T20:19:00.334Z,12.21
2022-09-21T20:21:35.749Z,12.10
2022-09-21T20:24:11.489Z,12.00
2022-09-21T20:26:40.044Z,11.89
2022-09-21T20:29:08.335Z,11.76
2022-09-21T20:31:35.337Z,11.60
2022-09-21T20:34:02.149Z,11.48
2022-09-21T20:36:29.079Z,11.32
2022-09-21T20:38:57.784Z,11.09
2022-09-21T20:41:25.055Z,11.06
2022-09-21T20:43:53.218Z,10.76
2022-09-21T20:46:20.351Z,10.59
2022-09-21T20:48:47.306Z,10.55
2022-09-21T20:51:14.173Z,10.55
2022-09-21T20:53:41.293Z,10.50
2022-09-21T20:56:08.247Z,10.44
2022-09-21T20:58:35.783Z,10.34
2022-09-21T21:01:05.472Z,10.26
2022-09-21T21:03:32.862Z,10.10
2022-09-21T21:06:10.631Z,10.08
2022-09-21T21:08:37.615Z,10.03
2022-09-21T21:11:04.686Z,9.99
2022-09-21T21:13:31.845Z,9.97
2022-09-21T21:16:00.239Z,9.94
2022-09-21T21:18:28.506Z,9.83
2022-09-21T21:20:55.326Z,9.76
2022-09-21T21:23:22.145Z,9.72
2022-09-21T21:25:49.057Z,9.49
2022-09-21T21:28:15.932Z,9.57
2022-09-21T21:30:42.836Z,9.58
2022-09-21T21:33:10.166Z,9.58
2022-09-21T21:35:38.653Z,9.58
2022-09-21T21:38:05.466Z,9.54
2022-09-21T21:40:32.395Z,9.47
2022-09-21T21:42:59.317Z,9.37
2022-09-21T21:45:26.150Z,9.30
2022-09-21T21:47:54.365Z,9.03
2022-09-21T21:50:21.272Z,9.12
2022-09-21T21:52:50.106Z,9.15
2022-09-21T21:55:17.161Z,9.14
2022-09-21T21:57:44.019Z,9.06
2022-09-21T22:00:12.403Z,9.03
2022-09-21T22:02:39.261Z,8.93
2022-09-21T22:05:07.075Z,9.01
2022-09-21T22:07:33.994Z,8.86
2022-09-21T22:10:03.035Z,8.77
2022-09-21T22:12:29.902Z,8.81
2022-09-21T22:14:56.747Z,8.81
2022-09-21T22:17:23.779Z,8.79
2022-09-21T22:19:51.470Z,8.80
2022-09-21T22:22:18.262Z,8.87
2022-09-21T22:24:45.238Z,8.84
2022-09-21T22:27:13.440Z,8.74
2022-09-21T22:29:40.647Z,8.55
2022-09-21T22:32:07.495Z,8.59
2022-09-21T22:34:34.317Z,8.54
2022-09-21T22:37:01.126Z,8.51
2022-09-21T22:39:27.990Z,8.51
2022-09-21T22:41:54.878Z,8.48
2022-09-21T22:44:23.062Z,8.40
2022-09-21T22:46:49.920Z,8.40
2022-09-21T22:49:16.732Z,8.18
2022-09-21T22:51:43.769Z,8.27
2022-09-21T22:54:10.590Z,8.25
2022-09-21T22:56:37.774Z,8.15
2022-09-21T22:59:05.570Z,8.15
2022-09-21T23:01:35.672Z,8.16
2022-09-21T23:04:04.581Z,8.11
2022-09-21T23:06:33.470Z,8.14
2022-09-21T23:09:02.355Z,8.15
2022-09-21T23:11:31.224Z,8.05
2022-09-21T23:13:59.453Z,8.01
2022-09-21T23:16:28.076Z,8.05
2022-09-21T23:18:57.782Z,8.00
2022-09-21T23:21:26.431Z,7.97
2022-09-21T23:23:55.742Z,7.93
2022-09-21T23:26:24.281Z,7.89
2022-09-21T23:28:53.416Z,7.84
2022-09-21T23:31:21.112Z,7.82
2022-09-21T23:33:49.539Z,7.80
2022-09-21T23:36:19.806Z,7.74
2022-09-21T23:38:47.773Z,7.67
2022-09-21T23:41:17.712Z,7.68
2022-09-21T23:43:45.402Z,7.73
2022-09-21T23:46:15.058Z,7.70
2022-09-21T23:48:42.857Z,7.71
2022-09-21T23:51:10.178Z,7.67
2022-09-21T23:53:39.201Z,7.60
2022-09-21T23:56:07.538Z,7.49
2022-09-21T23:58:34.544Z,7.39
